createdAt,value
2017-12-25T00:01:38.742Z,10.70
2017-12-25T00:04:06.259Z,10.70
2017-12-25T00:06:33.750Z,10.60
2017-12-25T00:09:01.248Z,10.60
2017-12-25T00:11:30.124Z,10.70
2017-12-25T00:13:57.700Z,10.70
2017-12-25T00:16:25.973Z,10.70
2017-12-25T00:18:54.236Z,10.70
2017-12-25T00:21:21.836Z,10.60
2017-12-25T00:23:50.084Z,10.70
2017-12-25T00:26:17.552Z,10.60
2017-12-25T00:28:46.741Z,10.60
2017-12-25T00:31:14.840Z,10.60
2017-12-25T00:33:43.097Z,10.60
2017-12-25T00:36:10.576Z,10.60
2017-12-25T00:38:38.832Z,10.60
2017-12-25T00:41:06.440Z,10.60
2017-12-25T00:43:34.687Z,10.60
2017-12-25T00:46:02.280Z,10.60
2017-12-25T00:48:30.540Z,10.50
2017-12-25T00:50:58.052Z,10.50
2017-12-25T00:53:25.604Z,10.60
2017-12-25T00:55:53.108Z,10.60
2017-12-25T00:58:21.105Z,10.60
2017-12-25T01:00:48.601Z,10.50
2017-12-25T01:03:16.870Z,10.50
2017-12-25T01:05:45.132Z,10.50
2017-12-25T01:08:12.604Z,10.50
2017-12-25T01:13:15.690Z,10.50
2017-12-25T01:15:45.666Z,10.50
2017-12-25T01:18:13.156Z,10.50
2017-12-25T01:20:40.687Z,10.50
2017-12-25T01:23:08.170Z,10.50
2017-12-25T01:25:35.701Z,10.50
2017-12-25T01:28:03.949Z,10.50
2017-12-25T01:30:31.476Z,10.40
2017-12-25T01:32:58.983Z,10.50
2017-12-25T01:35:26.488Z,10.50
2017-12-25T01:37:53.972Z,10.50
2017-12-25T01:40:21.475Z,10.50
2017-12-25T01:42:48.977Z,10.50
2017-12-25T01:45:16.818Z,10.50
2017-12-25T01:47:45.076Z,10.50
2017-12-25T01:50:12.581Z,10.50
2017-12-25T01:52:40.989Z,10.40
2017-12-25T01:55:08.493Z,10.40
2017-12-25T01:57:49.442Z,10.40
2017-12-25T02:00:43.498Z,10.40
2017-12-25T02:03:10.975Z,10.40
2017-12-25T02:05:47.244Z,10.40
2017-12-25T02:08:30.207Z,10.40
2017-12-25T02:10:58.073Z,10.40
2017-12-25T02:13:26.395Z,10.40
2017-12-25T02:15:53.877Z,10.40
2017-12-25T02:18:21.484Z,10.40
2017-12-25T02:20:49.740Z,10.30
2017-12-25T02:23:18.004Z,10.30
2017-12-25T02:25:45.490Z,10.30
2017-12-25T02:28:13.780Z,10.30
2017-12-25T02:30:42.056Z,10.30
2017-12-25T02:33:10.323Z,10.30
2017-12-25T02:35:37.826Z,10.30
2017-12-25T02:38:05.329Z,10.30
2017-12-25T02:40:32.803Z,10.30
2017-12-25T02:43:00.383Z,10.30
2017-12-25T02:45:28.645Z,10.30
2017-12-25T02:47:56.239Z,10.30
2017-12-25T02:50:24.501Z,10.20
2017-12-25T02:52:52.602Z,10.20
2017-12-25T02:55:20.868Z,10.30
2017-12-25T02:57:49.122Z,10.30
2017-12-25T03:00:16.613Z,10.20
2017-12-25T03:02:44.871Z,10.30
2017-12-25T03:05:12.374Z,10.20
2017-12-25T03:07:40.667Z,10.20
2017-12-25T03:10:08.960Z,10.20
2017-12-25T03:12:37.424Z,10.20
2017-12-25T03:15:04.907Z,10.20
2017-12-25T03:17:32.398Z,10.20
2017-12-25T03:20:00.000Z,10.20
2017-12-25T03:22:28.433Z,10.10
2017-12-25T03:24:56.114Z,10.10
2017-12-25T03:27:23.703Z,10.10
2017-12-25T03:29:51.209Z,10.10
2017-12-25T03:32:18.688Z,10.10
2017-12-25T03:34:46.197Z,10.10
2017-12-25T03:37:14.520Z,10.10
2017-12-25T03:39:41.999Z,10.10
2017-12-25T03:42:09.502Z,10.10
2017-12-25T03:44:37.802Z,10.10
2017-12-25T03:47:06.074Z,10.10
2017-12-25T03:49:35.595Z,10.10
2017-12-25T03:52:03.101Z,10.10
2017-12-25T03:54:31.924Z,10.10
2017-12-25T03:56:59.409Z,10.10
2017-12-25T03:59:26.947Z,10.10
2017-12-25T04:01:54.564Z,10.10
2017-12-25T04:04:22.087Z,10.10
2017-12-25T04:06:49.990Z,10.10
2017-12-25T04:09:17.525Z,10.10
2017-12-25T04:11:46.108Z,10.10
2017-12-25T04:14:14.118Z,10.10
2017-12-25T04:16:41.650Z,10.10
2017-12-25T04:19:09.177Z,10.10
2017-12-25T04:21:36.927Z,10.10
2017-12-25T04:24:04.462Z,10.10
2017-12-25T04:26:31.989Z,10.10
2017-12-25T04:28:59.568Z,10.20
2017-12-25T04:31:28.800Z,10.10
2017-12-25T04:33:56.284Z,10.10
2017-12-25T04:36:24.369Z,10.10
2017-12-25T04:38:51.902Z,10.10
2017-12-25T04:41:19.406Z,10.10
2017-12-25T04:43:47.022Z,10.10
2017-12-25T04:46:15.307Z,10.00
2017-12-25T04:48:42.857Z,10.00
2017-12-25T04:51:11.124Z,10.00
2017-12-25T04:53:38.606Z,10.00
2017-12-25T04:56:06.881Z,10.00
2017-12-25T04:58:35.168Z,10.00
2017-12-25T05:01:03.747Z,10.00
2017-12-25T05:03:32.362Z,9.90
2017-12-25T05:06:00.800Z,9.90
2017-12-25T05:08:30.680Z,9.90
2017-12-25T05:10:58.144Z,9.90
2017-12-25T05:13:25.766Z,9.90
2017-12-25T05:15:54.349Z,9.90
2017-12-25T05:18:22.645Z,9.80
2017-12-25T05:20:50.893Z,9.90
2017-12-25T05:23:18.384Z,9.80
2017-12-25T05:25:46.676Z,9.90
2017-12-25T05:28:14.181Z,9.90
2017-12-25T05:30:41.664Z,9.90
2017-12-25T05:33:09.139Z,9.90
2017-12-25T05:35:37.430Z,9.80
2017-12-25T05:38:06.253Z,9.80
2017-12-25T05:40:34.100Z,9.80
2017-12-25T05:43:02.358Z,9.80
2017-12-25T05:45:29.848Z,9.80
2017-12-25T05:47:58.107Z,9.80
2017-12-25T05:50:25.666Z,9.80
2017-12-25T05:52:53.198Z,9.80
2017-12-25T05:55:20.670Z,9.90
2017-12-25T05:57:48.166Z,9.80
2017-12-25T06:00:16.423Z,9.90
2017-12-25T06:02:43.916Z,9.80
2017-12-25T06:05:12.176Z,9.80
2017-12-25T06:07:39.669Z,9.80
2017-12-25T06:10:07.190Z,9.90
2017-12-25T06:12:35.508Z,9.80
2017-12-25T06:15:03.789Z,9.80
2017-12-25T06:17:31.340Z,9.80
2017-12-25T06:19:59.589Z,9.70
2017-12-25T06:22:27.105Z,9.70
2017-12-25T06:24:54.597Z,9.70
2017-12-25T06:27:22.081Z,9.70
2017-12-25T06:29:49.765Z,9.80
2017-12-25T06:32:18.201Z,9.70
2017-12-25T06:34:45.701Z,9.70
2017-12-25T06:37:13.312Z,9.80
2017-12-25T06:39:40.794Z,9.80
2017-12-25T06:42:08.317Z,9.80
2017-12-25T06:44:36.570Z,9.80
2017-12-25T06:47:04.193Z,9.70
2017-12-25T06:49:31.729Z,9.80
2017-12-25T06:51:59.969Z,9.80
2017-12-25T06:54:27.505Z,9.80
2017-12-25T06:56:54.980Z,9.80
2017-12-25T06:59:22.506Z,9.80
2017-12-25T07:01:51.521Z,9.70
2017-12-25T07:04:19.101Z,9.70
2017-12-25T07:06:46.590Z,9.80
2017-12-25T07:09:14.198Z,9.80
2017-12-25T07:11:42.487Z,9.80
2017-12-25T07:14:10.036Z,9.70
2017-12-25T07:16:38.301Z,9.80
2017-12-25T07:19:05.806Z,9.80
2017-12-25T07:21:33.299Z,9.80
2017-12-25T07:24:00.810Z,9.80
2017-12-25T07:26:29.053Z,9.80
2017-12-25T07:28:56.535Z,9.80
2017-12-25T07:31:24.013Z,9.80
2017-12-25T07:33:52.602Z,9.80
2017-12-25T07:36:20.854Z,9.80
2017-12-25T07:38:48.353Z,9.80
2017-12-25T07:41:15.844Z,9.80
2017-12-25T07:43:43.395Z,9.80
2017-12-25T07:46:10.869Z,9.80
2017-12-25T07:48:38.823Z,9.90
2017-12-25T07:51:07.153Z,9.80
2017-12-25T07:53:36.043Z,9.90
2017-12-25T07:56:03.542Z,9.90
2017-12-25T07:58:31.790Z,9.90
2017-12-25T08:00:59.298Z,9.90
2017-12-25T08:03:27.555Z,10.00
2017-12-25T08:05:55.841Z,10.00
2017-12-25T08:08:23.334Z,9.90
2017-12-25T08:10:50.836Z,10.00
2017-12-25T08:13:18.377Z,10.00
2017-12-25T08:15:45.861Z,10.00
2017-12-25T08:18:13.342Z,10.00
2017-12-25T08:20:40.981Z,10.00
2017-12-25T08:23:08.448Z,10.00
2017-12-25T08:25:35.945Z,10.00
2017-12-25T08:28:04.196Z,10.00
2017-12-25T08:30:32.306Z,10.00
2017-12-25T08:33:00.597Z,10.00
2017-12-25T08:35:28.877Z,10.00
2017-12-25T08:37:57.125Z,10.00
2017-12-25T08:40:26.161Z,10.00
2017-12-25T08:42:53.718Z,10.00
2017-12-25T08:45:22.102Z,10.00
2017-12-25T08:47:49.603Z,10.00
2017-12-25T08:50:17.100Z,10.00
2017-12-25T08:52:44.673Z,10.10
2017-12-25T08:55:13.735Z,10.10
2017-12-25T08:57:41.415Z,10.10
2017-12-25T09:00:09.106Z,10.10
2017-12-25T09:02:36.589Z,10.10
2017-12-25T09:05:04.146Z,10.10
2017-12-25T09:07:32.405Z,10.10
2017-12-25T09:10:00.831Z,10.10
2017-12-25T09:12:28.339Z,10.10
2017-12-25T09:14:55.857Z,10.10
2017-12-25T09:17:23.346Z,10.10
2017-12-25T09:19:50.835Z,10.10
2017-12-25T09:22:18.331Z,10.10
2017-12-25T09:24:46.924Z,10.10
2017-12-25T09:27:14.414Z,10.10
2017-12-25T09:29:41.889Z,10.10
2017-12-25T09:32:09.392Z,10.20
2017-12-25T09:34:37.669Z,10.30
2017-12-25T09:37:05.652Z,10.30
2017-12-25T09:39:33.912Z,10.20
2017-12-25T09:42:01.527Z,10.10
2017-12-25T09:44:29.020Z,10.10
2017-12-25T09:46:56.950Z,10.10
2017-12-25T09:49:24.547Z,10.20
2017-12-25T09:51:52.049Z,10.10
2017-12-25T09:54:19.544Z,10.20
2017-12-25T09:56:47.805Z,10.20
2017-12-25T09:59:16.137Z,10.20
2017-12-25T10:01:43.657Z,10.20
2017-12-25T10:04:11.930Z,10.20
2017-12-25T10:06:40.213Z,10.20
2017-12-25T10:09:07.729Z,10.20
2017-12-25T10:11:35.225Z,10.30
2017-12-25T10:14:02.724Z,10.30
2017-12-25T10:16:30.234Z,10.30
2017-12-25T10:18:57.720Z,10.30
2017-12-25T10:21:25.956Z,10.30
2017-12-25T10:23:54.206Z,10.30
2017-12-25T10:26:21.860Z,10.30
2017-12-25T10:28:51.173Z,10.30
2017-12-25T10:31:19.161Z,10.20
2017-12-25T10:33:46.701Z,10.30
2017-12-25T10:36:15.039Z,10.30
2017-12-25T10:38:42.548Z,10.30
2017-12-25T10:41:10.835Z,10.20
2017-12-25T10:43:39.086Z,10.30
2017-12-25T10:46:06.597Z,10.20
2017-12-25T10:48:34.098Z,10.30
2017-12-25T10:51:01.593Z,10.30
2017-12-25T10:53:29.898Z,10.40
2017-12-25T10:55:57.384Z,10.30
2017-12-25T10:58:24.869Z,10.30
2017-12-25T11:00:53.869Z,10.40
2017-12-25T11:03:21.406Z,10.30
2017-12-25T11:05:48.953Z,10.30
2017-12-25T11:08:16.449Z,10.30
2017-12-25T11:10:44.938Z,10.30
2017-12-25T11:13:12.537Z,10.30
2017-12-25T11:15:40.794Z,10.30
2017-12-25T11:18:09.830Z,10.30
2017-12-25T11:20:38.086Z,10.20
2017-12-25T11:23:05.591Z,10.20
2017-12-25T11:25:33.124Z,10.30
2017-12-25T11:28:01.399Z,10.30
2017-12-25T11:30:29.644Z,10.20
2017-12-25T11:32:57.249Z,10.20
2017-12-25T11:35:25.540Z,10.20
2017-12-25T11:37:53.198Z,10.20
2017-12-25T11:40:21.818Z,10.20
2017-12-25T11:42:49.376Z,10.10
2017-12-25T11:45:17.310Z,10.20
2017-12-25T11:47:45.586Z,10.20
2017-12-25T11:50:13.878Z,10.20
2017-12-25T11:52:42.800Z,10.20
2017-12-25T11:55:10.349Z,10.10
2017-12-25T11:57:38.603Z,10.10
2017-12-25T12:00:07.616Z,10.10
2017-12-25T12:02:35.231Z,10.20
2017-12-25T12:05:02.714Z,10.20
2017-12-25T12:07:30.241Z,10.20
2017-12-25T12:09:57.763Z,10.20
2017-12-25T12:12:25.266Z,10.20
2017-12-25T12:14:52.770Z,10.10
2017-12-25T12:17:20.276Z,10.10
2017-12-25T12:19:47.837Z,10.10
2017-12-25T12:22:16.079Z,10.10
2017-12-25T12:24:43.573Z,10.10
2017-12-25T12:27:11.833Z,10.10
2017-12-25T12:29:39.376Z,10.10
2017-12-25T12:32:07.304Z,10.10
2017-12-25T12:34:34.809Z,10.00
2017-12-25T12:37:02.319Z,10.00
2017-12-25T12:39:30.635Z,10.00
2017-12-25T12:41:58.165Z,10.00
2017-12-25T12:44:26.447Z,10.00
2017-12-25T12:46:54.752Z,10.00
2017-12-25T12:49:22.311Z,10.00
2017-12-25T12:51:49.821Z,10.00
2017-12-25T12:54:17.443Z,10.00
2017-12-25T12:56:44.980Z,9.90
2017-12-25T12:59:13.237Z,9.90
2017-12-25T13:01:42.288Z,10.00
2017-12-25T13:04:09.782Z,10.00
2017-12-25T13:06:37.281Z,10.00
2017-12-25T13:09:05.525Z,9.90
2017-12-25T13:11:33.067Z,9.90
2017-12-25T13:14:00.557Z,9.90
2017-12-25T13:16:28.110Z,10.00
2017-12-25T13:18:55.589Z,10.00
2017-12-25T13:21:23.092Z,9.90
2017-12-25T13:23:51.363Z,9.90
2017-12-25T13:26:20.150Z,10.00
2017-12-25T13:28:48.445Z,9.90
2017-12-25T13:31:15.993Z,9.90
2017-12-25T13:33:44.261Z,9.90
2017-12-25T13:36:12.269Z,9.90
2017-12-25T13:38:40.605Z,9.90
2017-12-25T13:41:08.145Z,9.80
2017-12-25T13:43:35.651Z,9.80
2017-12-25T13:46:03.925Z,9.80
2017-12-25T13:48:31.415Z,9.80
2017-12-25T13:50:58.911Z,9.80
2017-12-25T13:53:26.402Z,9.80
2017-12-25T13:55:53.892Z,9.80
2017-12-25T13:58:22.201Z,9.70
2017-12-25T14:00:49.698Z,9.70
2017-12-25T14:03:17.229Z,9.80
2017-12-25T14:05:45.042Z,9.70
2017-12-25T14:08:12.659Z,9.70
2017-12-25T14:10:40.142Z,9.70
2017-12-25T14:13:07.669Z,9.70
2017-12-25T14:15:35.931Z,9.70
2017-12-25T14:18:04.194Z,9.70
2017-12-25T14:20:31.740Z,9.70
2017-12-25T14:22:59.296Z,9.70
2017-12-25T14:25:26.812Z,9.60
2017-12-25T14:27:54.313Z,9.60
2017-12-25T14:30:21.833Z,9.60
2017-12-25T14:32:50.127Z,9.60
2017-12-25T14:35:18.383Z,9.60
2017-12-25T14:37:45.861Z,9.60
2017-12-25T14:40:14.186Z,9.60
2017-12-25T14:42:41.689Z,9.60
2017-12-25T14:45:09.283Z,9.60
2017-12-25T14:47:37.585Z,9.50
2017-12-25T14:50:05.772Z,9.50
2017-12-25T14:52:33.266Z,9.50
2017-12-25T14:55:00.761Z,9.60
2017-12-25T14:57:29.070Z,9.60
2017-12-25T14:59:56.628Z,9.60
2017-12-25T15:02:24.175Z,9.50
2017-12-25T15:04:52.429Z,9.50
2017-12-25T15:07:19.935Z,9.50
2017-12-25T15:09:47.409Z,9.50
2017-12-25T15:12:14.905Z,9.40
2017-12-25T15:14:42.413Z,9.40
2017-12-25T15:17:09.912Z,9.50
2017-12-25T15:19:37.389Z,9.40
2017-12-25T15:22:04.902Z,9.40
2017-12-25T15:24:32.383Z,9.50
2017-12-25T15:26:59.894Z,9.50
2017-12-25T15:29:27.380Z,9.50
2017-12-25T15:31:55.705Z,9.50
2017-12-25T15:34:23.226Z,9.40
2017-12-25T15:36:51.488Z,9.40
2017-12-25T15:39:19.114Z,9.40
2017-12-25T15:41:46.834Z,9.40
2017-12-25T15:44:15.112Z,9.40
2017-12-25T15:46:43.500Z,9.40
2017-12-25T15:49:11.874Z,9.40
2017-12-25T15:51:39.396Z,9.40
2017-12-25T15:54:06.890Z,9.30
2017-12-25T15:56:34.393Z,9.30
2017-12-25T15:59:01.941Z,9.40
2017-12-25T16:01:30.205Z,9.30
2017-12-25T16:03:58.102Z,9.30
2017-12-25T16:06:26.376Z,9.30
2017-12-25T16:08:54.651Z,9.30
2017-12-25T16:11:22.896Z,9.30
2017-12-25T16:13:50.411Z,9.30
2017-12-25T16:16:17.903Z,9.30
2017-12-25T16:18:45.438Z,9.30
2017-12-25T16:21:12.963Z,9.30
2017-12-25T16:23:40.461Z,9.30
2017-12-25T16:26:08.761Z,9.20
2017-12-25T16:28:36.311Z,9.20
2017-12-25T16:31:03.831Z,9.20
2017-12-25T16:33:31.376Z,9.20
2017-12-25T16:35:59.669Z,9.20
2017-12-25T16:38:27.277Z,9.20
2017-12-25T16:40:55.531Z,9.30
2017-12-25T16:43:23.049Z,9.20
2017-12-25T16:45:50.560Z,9.20
2017-12-25T16:48:18.130Z,9.20
2017-12-25T16:50:45.610Z,9.20
2017-12-25T16:53:13.869Z,9.30
2017-12-25T16:55:42.155Z,9.30
2017-12-25T16:58:10.452Z,9.30
2017-12-25T17:00:39.348Z,9.20
2017-12-25T17:03:06.847Z,9.20
2017-12-25T17:05:34.362Z,9.30
2017-12-25T17:08:02.641Z,9.10
2017-12-25T17:10:30.900Z,9.20
2017-12-25T17:12:58.405Z,9.20
2017-12-25T17:15:26.679Z,9.10
2017-12-25T17:17:54.982Z,9.10
2017-12-25T17:20:23.157Z,9.00
2017-12-25T17:22:50.645Z,9.10
2017-12-25T17:25:18.133Z,9.10
2017-12-25T17:27:45.620Z,9.10
2017-12-25T17:30:13.916Z,9.10
2017-12-25T17:32:41.417Z,9.10
2017-12-25T17:35:08.937Z,9.10
2017-12-25T17:37:36.437Z,9.00
2017-12-25T17:40:03.922Z,9.00
2017-12-25T17:42:31.417Z,9.00
2017-12-25T17:44:59.686Z,9.00
2017-12-25T17:47:27.970Z,9.00
2017-12-25T17:49:56.282Z,9.00
2017-12-25T17:52:23.776Z,9.00
2017-12-25T17:54:51.272Z,9.00
2017-12-25T17:57:18.752Z,8.90
2017-12-25T17:59:47.104Z,8.90
2017-12-25T18:02:15.059Z,8.90
2017-12-25T18:04:42.704Z,8.90
2017-12-25T18:07:10.250Z,8.90
2017-12-25T18:09:37.848Z,8.90
2017-12-25T18:12:05.682Z,9.00
2017-12-25T18:14:33.186Z,8.90
2017-12-25T18:17:00.701Z,8.90
2017-12-25T18:19:28.984Z,8.80
2017-12-25T18:21:56.553Z,8.80
2017-12-25T18:24:24.128Z,8.80
2017-12-25T18:26:51.601Z,8.80
2017-12-25T18:29:19.122Z,8.80
2017-12-25T18:31:47.392Z,8.70
2017-12-25T18:34:14.879Z,8.70
2017-12-25T18:36:43.173Z,8.70
2017-12-25T18:39:10.699Z,8.70
2017-12-25T18:41:38.325Z,8.70
2017-12-25T18:44:05.806Z,8.70
2017-12-25T18:46:33.309Z,8.70
2017-12-25T18:49:01.564Z,8.70
2017-12-25T18:51:29.043Z,8.70
2017-12-25T18:53:57.333Z,8.70
2017-12-25T18:56:25.599Z,8.70
2017-12-25T18:58:53.174Z,8.70
2017-12-25T19:01:21.429Z,8.60
2017-12-25T19:03:48.915Z,8.60
2017-12-25T19:06:17.246Z,8.60
2017-12-25T19:08:44.719Z,8.50
2017-12-25T19:11:12.220Z,8.50
2017-12-25T19:13:40.479Z,8.50
2017-12-25T19:16:07.991Z,8.50
2017-12-25T19:18:35.471Z,8.50
2017-12-25T19:21:02.979Z,8.40
2017-12-25T19:23:31.168Z,8.40
2017-12-25T19:25:59.426Z,8.50
2017-12-25T19:28:26.929Z,8.40
2017-12-25T19:30:55.165Z,8.50
2017-12-25T19:33:22.673Z,8.40
2017-12-25T19:35:50.957Z,8.50
2017-12-25T19:38:18.448Z,8.50
2017-12-25T19:40:45.996Z,8.50
2017-12-25T19:43:13.505Z,8.50
2017-12-25T19:45:40.979Z,8.50
2017-12-25T19:48:08.493Z,8.50
2017-12-25T19:50:36.043Z,8.40
2017-12-25T19:53:03.555Z,8.40
2017-12-25T19:55:31.089Z,8.30
2017-12-25T19:57:58.597Z,8.40
2017-12-25T20:00:26.064Z,8.50
2017-12-25T20:02:54.340Z,8.40
2017-12-25T20:05:22.596Z,8.40
2017-12-25T20:07:50.142Z,8.40
2017-12-25T20:10:18.275Z,8.40
2017-12-25T20:12:46.538Z,8.50
2017-12-25T20:15:14.041Z,8.40
2017-12-25T20:17:41.619Z,8.50
2017-12-25T20:20:09.157Z,8.50
2017-12-25T20:22:37.453Z,8.50
2017-12-25T20:25:04.937Z,8.50
2017-12-25T20:27:32.452Z,8.50
2017-12-25T20:30:01.139Z,8.50
2017-12-25T20:32:29.420Z,8.40
2017-12-25T20:34:57.660Z,8.40
2017-12-25T20:37:25.204Z,8.40
2017-12-25T20:39:52.728Z,8.40
2017-12-25T20:42:21.010Z,8.30
2017-12-25T20:44:49.284Z,8.40
2017-12-25T20:47:17.579Z,8.40
2017-12-25T20:49:45.829Z,8.40
2017-12-25T20:52:14.131Z,8.30
2017-12-25T20:54:42.447Z,8.30
2017-12-25T20:57:09.971Z,8.30
2017-12-25T20:59:37.558Z,8.30
2017-12-25T21:02:05.836Z,8.20
2017-12-25T21:04:34.219Z,8.20
2017-12-25T21:07:02.526Z,8.30
2017-12-25T21:09:30.037Z,8.30
2017-12-25T21:11:57.608Z,8.20
2017-12-25T21:14:26.036Z,8.20
2017-12-25T21:16:53.523Z,8.10
2017-12-25T21:19:21.036Z,8.20
2017-12-25T21:21:49.316Z,8.20
2017-12-25T21:24:16.925Z,8.10
2017-12-25T21:26:44.401Z,8.20
2017-12-25T21:29:11.900Z,8.20
2017-12-25T21:31:39.664Z,8.10
2017-12-25T21:34:07.431Z,8.10
2017-12-25T21:36:36.777Z,7.90
2017-12-25T21:39:04.294Z,7.90
2017-12-25T21:41:31.882Z,7.90
2017-12-25T21:44:00.137Z,7.90
2017-12-25T21:46:27.654Z,7.90
2017-12-25T21:48:55.152Z,7.80
2017-12-25T21:51:22.633Z,7.70
2017-12-25T21:53:50.939Z,7.40
2017-12-25T21:56:18.531Z,7.40
2017-12-25T21:58:46.035Z,7.30
2017-12-25T22:01:13.566Z,7.20
2017-12-25T22:03:41.109Z,7.00
2017-12-25T22:06:08.648Z,6.90
2017-12-25T22:08:36.942Z,6.80
2017-12-25T22:11:04.449Z,6.80
2017-12-25T22:13:31.937Z,6.70
2017-12-25T22:15:59.463Z,6.60
2017-12-25T22:18:27.206Z,6.60
2017-12-25T22:20:54.746Z,6.50
2017-12-25T22:23:23.372Z,6.40
2017-12-25T22:25:50.891Z,6.30
2017-12-25T22:28:19.137Z,6.20
2017-12-25T22:30:46.660Z,6.20
2017-12-25T22:33:14.149Z,6.20
2017-12-25T22:35:41.673Z,6.10
2017-12-25T22:38:09.949Z,6.00
2017-12-25T22:40:38.279Z,6.00
2017-12-25T22:43:05.796Z,6.00
2017-12-25T22:45:34.078Z,5.90
2017-12-25T22:48:02.342Z,5.90
2017-12-25T22:50:29.871Z,5.90
2017-12-25T22:52:57.349Z,5.80
2017-12-25T22:55:25.633Z,5.70
2017-12-25T22:57:53.126Z,5.70
2017-12-25T23:00:21.402Z,5.70
2017-12-25T23:02:49.682Z,5.70
2017-12-25T23:05:17.938Z,5.60
2017-12-25T23:07:45.558Z,5.60
2017-12-25T23:10:13.046Z,5.60
2017-12-25T23:12:40.583Z,5.50
2017-12-25T23:15:08.386Z,5.50
2017-12-25T23:17:35.900Z,5.40
2017-12-25T23:20:04.154Z,5.40
2017-12-25T23:22:31.693Z,5.40
2017-12-25T23:24:59.180Z,5.40
2017-12-25T23:27:26.743Z,5.40
2017-12-25T23:29:54.220Z,5.40
2017-12-25T23:32:22.542Z,5.30
2017-12-25T23:34:50.032Z,5.30
2017-12-25T23:37:17.604Z,5.30
2017-12-25T23:39:45.902Z,5.30
2017-12-25T23:42:13.406Z,5.30
2017-12-25T23:44:40.901Z,5.20
2017-12-25T23:47:08.399Z,5.20
2017-12-25T23:49:36.701Z,5.10
2017-12-25T23:52:04.197Z,5.00
2017-12-25T23:54:31.709Z,5.10
2017-12-25T23:57:01.044Z,5.00
2017-12-25T23:59:28.516Z,5.00
